createdAt,value
2018-10-05T00:01:23.569Z,78.51
2018-10-05T00:03:53.950Z,78.58
2018-10-05T00:06:24.331Z,78.46
2018-10-05T00:08:54.761Z,79.04
2018-10-05T00:11:25.361Z,78.98
2018-10-05T00:13:56.453Z,79.27
2018-10-05T00:16:26.928Z,80.29
2018-10-05T00:18:57.348Z,79.77
2018-10-05T00:21:27.760Z,80.43
2018-10-05T00:23:58.084Z,80.35
2018-10-05T00:26:28.551Z,80.36
2018-10-05T00:28:58.861Z,80.70
2018-10-05T00:31:29.984Z,80.46
2018-10-05T00:34:00.500Z,80.60
2018-10-05T00:36:31.108Z,80.26
2018-10-05T00:39:01.720Z,81.22
2018-10-05T00:41:32.056Z,80.52
2018-10-05T00:44:02.356Z,80.81
2018-10-05T00:46:32.914Z,80.50
2018-10-05T00:49:03.348Z,81.00
2018-10-05T00:51:33.603Z,80.36
2018-10-05T00:54:04.088Z,80.54
2018-10-05T00:56:34.552Z,80.39
2018-10-05T00:59:05.053Z,80.19
2018-10-05T01:01:35.551Z,80.11
2018-10-05T01:04:05.815Z,80.55
2018-10-05T01:06:36.256Z,80.88
2018-10-05T01:09:07.559Z,80.68
2018-10-05T01:11:38.197Z,81.10
2018-10-05T01:14:08.556Z,81.37
2018-10-05T01:16:39.063Z,81.84
2018-10-05T01:19:09.660Z,81.79
2018-10-05T01:21:39.888Z,81.82
2018-10-05T01:24:10.192Z,81.70
2018-10-05T01:26:40.756Z,81.99
2018-10-05T01:29:11.115Z,82.36
2018-10-05T01:31:41.529Z,81.85
2018-10-05T01:34:11.946Z,82.08
2018-10-05T01:36:42.347Z,82.16
2018-10-05T01:39:12.639Z,82.36
2018-10-05T01:41:43.036Z,81.82
2018-10-05T01:44:13.396Z,82.03
2018-10-05T01:46:43.756Z,82.07
2018-10-05T01:49:14.172Z,82.35
2018-10-05T01:51:44.658Z,82.01
2018-10-05T01:54:15.546Z,81.61
2018-10-05T01:56:46.008Z,82.18
2018-10-05T01:59:16.464Z,82.70
2018-10-05T02:01:47.837Z,82.90
2018-10-05T02:04:18.212Z,83.18
2018-10-05T02:06:48.641Z,82.96
2018-10-05T02:09:18.943Z,82.89
2018-10-05T02:11:49.400Z,82.91
2018-10-05T02:14:19.693Z,83.23
2018-10-05T02:16:50.155Z,82.97
2018-10-05T02:19:20.776Z,83.37
2018-10-05T02:21:51.146Z,83.70
2018-10-05T02:24:21.506Z,83.53
2018-10-05T02:26:51.914Z,83.01
2018-10-05T02:29:22.208Z,83.56
2018-10-05T02:31:52.567Z,83.18
2018-10-05T02:34:22.924Z,83.69
2018-10-05T02:36:53.401Z,83.31
2018-10-05T02:39:23.710Z,83.47
2018-10-05T02:41:54.089Z,83.57
2018-10-05T02:44:24.352Z,83.65
2018-10-05T02:46:54.712Z,83.51
2018-10-05T02:49:25.348Z,83.53
2018-10-05T02:51:55.995Z,83.24
2018-10-05T02:54:26.281Z,83.58
2018-10-05T02:56:56.624Z,83.20
2018-10-05T02:59:26.932Z,83.88
2018-10-05T03:02:14.369Z,83.04
2018-10-05T03:04:44.680Z,83.50
2018-10-05T03:07:15.053Z,83.63
2018-10-05T03:09:45.318Z,83.52
2018-10-05T03:12:16.396Z,83.78
2018-10-05T03:14:48.780Z,83.32
2018-10-05T03:17:19.332Z,83.13
2018-10-05T03:19:49.656Z,83.59
2018-10-05T03:22:19.880Z,83.13
2018-10-05T03:24:50.243Z,83.46
2018-10-05T03:27:20.859Z,83.70
2018-10-05T03:29:51.254Z,83.77
2018-10-05T03:32:21.585Z,83.18
2018-10-05T03:34:52.012Z,83.06
2018-10-05T03:37:22.445Z,83.40
2018-10-05T03:39:52.772Z,83.41
2018-10-05T03:42:23.072Z,83.06
2018-10-05T03:44:53.403Z,83.09
2018-10-05T03:47:23.816Z,82.79
2018-10-05T03:49:54.314Z,82.72
2018-10-05T03:52:24.668Z,82.88
2018-10-05T03:54:55.025Z,82.43
2018-10-05T03:57:25.415Z,82.84
2018-10-05T03:59:55.699Z,82.77
2018-10-05T04:02:26.753Z,82.79
2018-10-05T04:04:57.090Z,83.05
2018-10-05T04:07:27.345Z,82.88
2018-10-05T04:09:57.707Z,82.76
2018-10-05T04:12:28.367Z,82.80
2018-10-05T04:14:58.880Z,83.11
2018-10-05T04:17:29.277Z,82.86
2018-10-05T04:19:59.659Z,83.41
2018-10-05T04:22:31.136Z,83.54
2018-10-05T04:25:01.669Z,83.38
2018-10-05T04:27:32.249Z,83.28
2018-10-05T04:30:02.758Z,83.17
2018-10-05T04:32:33.073Z,83.56
2018-10-05T04:35:03.480Z,83.82
2018-10-05T04:37:33.944Z,83.96
2018-10-05T04:40:04.349Z,83.63
2018-10-05T04:42:34.704Z,83.59
2018-10-05T04:45:05.320Z,83.51
2018-10-05T04:47:35.742Z,83.44
2018-10-05T04:50:06.111Z,83.85
2018-10-05T04:52:36.493Z,83.52
2018-10-05T04:55:06.991Z,83.76
2018-10-05T04:57:37.543Z,83.43
2018-10-05T05:00:08.232Z,83.57
2018-10-05T05:02:38.634Z,83.60
2018-10-05T05:05:09.011Z,84.01
2018-10-05T05:07:39.444Z,84.16
2018-10-05T05:10:10.656Z,84.09
2018-10-05T05:12:40.963Z,83.96
2018-10-05T05:15:11.539Z,84.31
2018-10-05T05:17:42.038Z,83.80
2018-10-05T05:20:12.996Z,84.14
2018-10-05T05:22:43.370Z,84.09
2018-10-05T05:25:13.771Z,83.78
2018-10-05T05:27:44.356Z,83.80
2018-10-05T05:30:14.752Z,83.83
2018-10-05T05:32:45.083Z,83.50
2018-10-05T05:35:15.280Z,83.51
2018-10-05T05:37:45.580Z,83.55
2018-10-05T05:40:16.081Z,83.92
2018-10-05T05:42:46.536Z,83.84
2018-10-05T05:45:16.891Z,83.77
2018-10-05T05:47:47.412Z,82.78
2018-10-05T05:50:17.946Z,79.58
2018-10-05T05:52:48.283Z,76.70
2018-10-05T05:55:18.721Z,74.41
2018-10-05T05:57:49.012Z,72.55
2018-10-05T06:00:19.471Z,70.71
2018-10-05T06:02:49.879Z,70.10
2018-10-05T06:05:20.844Z,67.05
2018-10-05T06:07:51.251Z,67.50
2018-10-05T06:10:21.816Z,65.57
2018-10-05T06:12:52.151Z,64.96
2018-10-05T06:15:22.573Z,63.61
2018-10-05T06:17:53.033Z,62.02
2018-10-05T06:20:23.439Z,61.42
2018-10-05T06:22:53.744Z,61.46
2018-10-05T06:25:24.096Z,60.50
2018-10-05T06:27:54.374Z,60.38
2018-10-05T06:30:25.798Z,57.79
2018-10-05T06:32:56.103Z,57.74
2018-10-05T06:35:26.508Z,58.26
2018-10-05T06:37:57.067Z,57.60
2018-10-05T06:40:27.512Z,56.10
2018-10-05T06:42:57.876Z,56.24
2018-10-05T06:45:28.372Z,57.55
2018-10-05T06:47:58.829Z,55.54
2018-10-05T06:50:29.247Z,56.04
2018-10-05T06:52:59.536Z,53.99
2018-10-05T06:55:29.991Z,53.55
2018-10-05T06:58:00.294Z,52.91
2018-10-05T07:00:30.848Z,52.85
2018-10-05T07:03:01.345Z,53.54
2018-10-05T07:05:31.910Z,54.65
2018-10-05T07:08:02.471Z,53.06
2018-10-05T07:10:33.247Z,52.29
2018-10-05T07:13:03.807Z,53.40
2018-10-05T07:15:34.032Z,52.57
2018-10-05T07:18:04.312Z,53.07
2018-10-05T07:20:34.820Z,53.05
2018-10-05T07:23:05.427Z,53.43
2018-10-05T07:25:35.799Z,53.69
2018-10-05T07:28:06.300Z,52.72
2018-10-05T07:30:36.717Z,52.44
2018-10-05T07:33:07.208Z,52.21
2018-10-05T07:35:37.611Z,49.72
2018-10-05T07:38:08.208Z,48.35
2018-10-05T07:40:38.439Z,49.75
2018-10-05T07:43:08.981Z,50.09
2018-10-05T07:45:39.886Z,48.94
2018-10-05T07:48:10.418Z,48.90
2018-10-05T07:50:41.004Z,47.28
2018-10-05T07:53:11.296Z,46.78
2018-10-05T07:55:41.648Z,46.14
2018-10-05T07:58:12.046Z,46.29
2018-10-05T08:00:42.571Z,45.09
2018-10-05T08:03:12.924Z,43.88
2018-10-05T08:05:43.214Z,43.21
2018-10-05T08:08:13.655Z,43.66
2018-10-05T08:10:44.056Z,42.68
2018-10-05T08:13:14.536Z,42.95
2018-10-05T08:15:45.014Z,42.06
2018-10-05T08:18:15.284Z,42.68
2018-10-05T08:20:45.747Z,42.87
2018-10-05T08:23:16.064Z,42.84
2018-10-05T08:25:46.560Z,42.60
2018-10-05T08:28:17.109Z,43.47
2018-10-05T08:30:47.441Z,43.15
2018-10-05T08:33:17.842Z,42.88
2018-10-05T08:35:48.396Z,43.73
2018-10-05T08:38:18.735Z,44.63
2018-10-05T08:40:49.359Z,43.68
2018-10-05T08:43:19.797Z,43.21
2018-10-05T08:45:50.260Z,42.38
2018-10-05T08:48:20.767Z,43.67
2018-10-05T08:50:51.217Z,44.65
2018-10-05T08:53:21.643Z,44.69
2018-10-05T08:55:52.099Z,44.70
2018-10-05T08:58:22.502Z,44.82
2018-10-05T09:00:52.908Z,47.15
2018-10-05T09:03:23.329Z,45.73
2018-10-05T09:05:53.789Z,45.24
2018-10-05T09:08:24.114Z,45.77
2018-10-05T09:10:54.367Z,48.34
2018-10-05T09:13:24.967Z,47.10
2018-10-05T09:15:55.421Z,48.78
2018-10-05T09:18:25.846Z,48.53
2018-10-05T09:20:56.257Z,47.98
2018-10-05T09:23:26.609Z,48.33
2018-10-05T09:25:57.148Z,49.32
2018-10-05T09:28:27.340Z,49.15
2018-10-05T09:30:57.840Z,48.63
2018-10-05T09:33:28.207Z,49.07
2018-10-05T09:35:58.695Z,52.12
2018-10-05T09:38:29.297Z,51.80
2018-10-05T09:40:59.757Z,51.13
2018-10-05T09:43:30.037Z,50.79
2018-10-05T09:46:00.591Z,49.96
2018-10-05T09:48:31.103Z,50.30
2018-10-05T09:51:01.583Z,49.04
2018-10-05T09:53:31.926Z,49.82
2018-10-05T09:56:02.420Z,50.45
2018-10-05T09:58:32.920Z,49.03
2018-10-05T10:01:09.520Z,49.63
2018-10-05T10:03:39.804Z,48.83
2018-10-05T10:06:10.307Z,49.76
2018-10-05T10:08:40.762Z,48.34
2018-10-05T10:11:11.342Z,48.13
2018-10-05T10:13:41.783Z,48.55
2018-10-05T10:16:12.469Z,47.99
2018-10-05T10:18:43.181Z,47.52
2018-10-05T10:21:13.712Z,48.30
2018-10-05T10:23:44.299Z,47.69
2018-10-05T10:26:14.664Z,45.95
2018-10-05T10:28:45.325Z,46.69
2018-10-05T10:31:15.667Z,45.14
2018-10-05T10:33:46.135Z,44.61
2018-10-05T10:36:16.595Z,44.49
2018-10-05T10:38:47.167Z,45.99
2018-10-05T10:41:17.434Z,46.33
2018-10-05T10:43:47.904Z,44.54
2018-10-05T10:46:18.512Z,44.77
2018-10-05T10:48:49.007Z,45.31
2018-10-05T10:51:19.509Z,44.88
2018-10-05T10:53:49.997Z,45.18
2018-10-05T10:56:20.487Z,45.35
2018-10-05T10:58:50.820Z,43.97
2018-10-05T11:01:22.332Z,45.44
2018-10-05T11:03:52.695Z,44.59
2018-10-05T11:06:23.070Z,44.30
2018-10-05T11:08:53.371Z,43.42
2018-10-05T11:11:23.958Z,43.12
2018-10-05T11:13:54.385Z,44.14
2018-10-05T11:16:24.930Z,41.90
2018-10-05T11:18:55.976Z,42.50
2018-10-05T11:21:26.260Z,43.94
2018-10-05T11:23:56.585Z,43.15
2018-10-05T11:26:27.055Z,43.17
2018-10-05T11:28:57.540Z,42.23
2018-10-05T11:31:28.015Z,42.79
2018-10-05T11:33:58.363Z,42.63
2018-10-05T11:36:28.861Z,43.21
2018-10-05T11:38:59.254Z,42.83
2018-10-05T11:41:29.637Z,42.48
2018-10-05T11:44:00.691Z,41.81
2018-10-05T11:46:31.426Z,41.92
2018-10-05T11:49:01.811Z,42.32
2018-10-05T11:51:32.164Z,42.78
2018-10-05T11:54:02.587Z,43.13
2018-10-05T11:56:32.988Z,42.57
2018-10-05T11:59:03.331Z,42.23
2018-10-05T12:01:33.691Z,43.40
2018-10-05T12:04:04.183Z,42.48
2018-10-05T12:06:35.124Z,42.50
2018-10-05T12:09:07.459Z,42.77
2018-10-05T12:11:38.337Z,43.01
2018-10-05T12:14:08.763Z,43.99
2018-10-05T12:16:39.335Z,43.36
2018-10-05T12:19:09.835Z,44.29
2018-10-05T12:21:40.207Z,44.39
2018-10-05T12:24:10.577Z,43.69
2018-10-05T12:26:41.127Z,43.02
2018-10-05T12:29:12.173Z,43.60
2018-10-05T12:31:42.526Z,43.31
2018-10-05T12:34:13.030Z,42.13
2018-10-05T12:36:43.420Z,43.36
2018-10-05T12:39:13.820Z,42.93
2018-10-05T12:41:44.140Z,43.69
2018-10-05T12:44:14.440Z,44.09
2018-10-05T12:46:45.037Z,42.35
2018-10-05T12:49:15.531Z,43.32
2018-10-05T12:51:46.115Z,42.30
2018-10-05T12:54:16.483Z,42.71
2018-10-05T12:56:46.807Z,42.75
2018-10-05T12:59:17.235Z,42.28
2018-10-05T13:01:47.748Z,41.64
2018-10-05T13:04:18.223Z,42.86
2018-10-05T13:06:48.809Z,43.52
2018-10-05T13:09:19.149Z,43.63
2018-10-05T13:11:49.581Z,43.69
2018-10-05T13:14:20.135Z,43.58
2018-10-05T13:16:50.580Z,43.37
2018-10-05T13:19:21.000Z,42.40
2018-10-05T13:21:51.372Z,43.46
2018-10-05T13:24:21.665Z,43.60
2018-10-05T13:26:52.100Z,43.48
2018-10-05T13:29:22.592Z,42.39
2018-10-05T13:31:53.098Z,42.86
2018-10-05T13:34:23.598Z,43.03
2018-10-05T13:36:53.863Z,43.03
2018-10-05T13:39:24.336Z,43.16
2018-10-05T13:41:54.748Z,43.05
2018-10-05T13:44:25.202Z,43.52
2018-10-05T13:46:55.575Z,43.80
2018-10-05T13:49:26.208Z,43.78
2018-10-05T13:51:56.634Z,43.49
2018-10-05T13:54:27.028Z,44.24
2018-10-05T13:56:57.343Z,43.64
2018-10-05T13:59:27.768Z,42.94
2018-10-05T14:01:58.511Z,42.34
2018-10-05T14:04:29.025Z,43.14
2018-10-05T14:06:59.501Z,43.21
2018-10-05T14:09:30.019Z,43.64
2018-10-05T14:12:01.388Z,42.73
2018-10-05T14:14:31.663Z,43.95
2018-10-05T14:17:02.064Z,43.74
2018-10-05T14:19:32.562Z,43.73
2018-10-05T14:22:03.037Z,44.67
2018-10-05T14:24:34.128Z,43.80
2018-10-05T14:27:05.207Z,44.13
2018-10-05T14:29:35.512Z,44.93
2018-10-05T14:32:05.984Z,44.61
2018-10-05T14:34:36.764Z,46.09
2018-10-05T14:37:07.319Z,44.93
2018-10-05T14:39:37.852Z,46.84
2018-10-05T14:42:08.234Z,46.15
2018-10-05T14:44:38.782Z,46.14
2018-10-05T14:47:09.285Z,46.53
2018-10-05T14:49:39.909Z,47.24
2018-10-05T14:52:10.460Z,46.79
2018-10-05T14:54:41.174Z,47.35
2018-10-05T14:57:11.708Z,47.48
2018-10-05T14:59:42.313Z,47.79
2018-10-05T15:02:12.543Z,48.06
2018-10-05T15:04:43.008Z,48.15
2018-10-05T15:07:13.719Z,47.82
2018-10-05T15:09:44.294Z,47.52
2018-10-05T15:12:14.879Z,47.22
2018-10-05T15:14:45.312Z,48.35
2018-10-05T15:17:15.699Z,47.62
2018-10-05T15:19:46.040Z,48.21
2018-10-05T15:22:16.413Z,49.29
2018-10-05T15:24:46.732Z,49.89
2018-10-05T15:27:17.299Z,49.17
2018-10-05T15:29:47.687Z,49.39
2018-10-05T15:32:18.039Z,49.09
2018-10-05T15:34:48.334Z,50.20
2018-10-05T15:37:19.035Z,49.62
2018-10-05T15:39:49.700Z,50.62
2018-10-05T15:42:20.091Z,50.35
2018-10-05T15:44:50.447Z,50.75
2018-10-05T15:47:20.892Z,50.18
2018-10-05T15:49:51.312Z,51.06
2018-10-05T15:52:21.738Z,51.79
2018-10-05T15:54:52.210Z,52.05
2018-10-05T15:57:22.771Z,51.15
2018-10-05T15:59:53.281Z,51.92
2018-10-05T16:02:23.783Z,52.29
2018-10-05T16:04:54.211Z,52.14
2018-10-05T16:07:24.680Z,52.14
2018-10-05T16:09:54.984Z,53.60
2018-10-05T16:12:25.875Z,53.39
2018-10-05T16:14:56.352Z,53.96
2018-10-05T16:17:26.891Z,55.02
2018-10-05T16:19:57.183Z,55.57
2018-10-05T16:22:27.777Z,57.60
2018-10-05T16:24:58.373Z,56.10
2018-10-05T16:27:28.747Z,56.71
2018-10-05T16:29:59.003Z,56.51
2018-10-05T16:32:29.503Z,57.24
2018-10-05T16:35:00.010Z,58.60
2018-10-05T16:37:30.578Z,58.07
2018-10-05T16:40:00.785Z,59.57
2018-10-05T16:42:31.244Z,59.52
2018-10-05T16:45:01.704Z,60.34
2018-10-05T16:47:32.564Z,60.30
2018-10-05T16:50:02.952Z,62.12
2018-10-05T16:52:35.396Z,62.80
2018-10-05T16:55:05.888Z,63.46
2018-10-05T16:57:36.384Z,64.43
2018-10-05T17:00:07.097Z,63.57
2018-10-05T17:02:37.566Z,64.51
2018-10-05T17:05:08.160Z,65.37
2018-10-05T17:07:38.381Z,65.65
2018-10-05T17:10:09.532Z,66.10
2018-10-05T17:12:39.771Z,65.69
2018-10-05T17:15:10.180Z,66.25
2018-10-05T17:17:40.702Z,67.30
2018-10-05T17:20:11.144Z,66.76
2018-10-05T17:22:41.403Z,67.20
2018-10-05T17:25:11.882Z,67.02
2018-10-05T17:27:42.281Z,66.92
2018-10-05T17:30:12.792Z,66.79
2018-10-05T17:32:43.353Z,67.89
2018-10-05T17:35:13.857Z,68.05
2018-10-05T17:37:44.529Z,68.02
2018-10-05T17:40:14.698Z,69.12
2018-10-05T17:42:45.199Z,69.53
2018-10-05T17:45:15.701Z,69.47
2018-10-05T17:47:46.378Z,68.68
2018-10-05T17:50:16.924Z,68.57
2018-10-05T17:52:47.429Z,68.31
2018-10-05T17:55:18.736Z,68.03
2018-10-05T17:57:49.183Z,68.06
2018-10-05T18:00:19.801Z,68.53
2018-10-05T18:02:50.306Z,69.35
2018-10-05T18:05:20.612Z,69.42
2018-10-05T18:07:51.103Z,69.36
2018-10-05T18:10:21.681Z,69.99
2018-10-05T18:12:52.163Z,70.14
2018-10-05T18:15:23.332Z,70.36
2018-10-05T18:17:53.817Z,70.36
2018-10-05T18:20:24.387Z,70.33
2018-10-05T18:22:54.673Z,70.67
2018-10-05T18:25:25.185Z,71.40
2018-10-05T18:27:55.652Z,71.33
2018-10-05T18:30:26.107Z,72.77
2018-10-05T18:32:56.884Z,72.54
2018-10-05T18:35:27.502Z,73.40
2018-10-05T18:37:58.010Z,73.11
2018-10-05T18:40:28.663Z,73.85
2018-10-05T18:42:59.254Z,73.84
2018-10-05T18:45:29.745Z,73.76
2018-10-05T18:48:00.261Z,73.72
2018-10-05T18:50:30.772Z,73.65
2018-10-05T18:53:01.357Z,73.86
2018-10-05T18:55:31.941Z,73.45
2018-10-05T18:58:02.367Z,73.33
2018-10-05T19:00:33.078Z,73.94
2018-10-05T19:03:03.740Z,73.59
2018-10-05T19:05:34.701Z,74.41
2018-10-05T19:08:05.187Z,74.92
2018-10-05T19:10:35.801Z,74.32
2018-10-05T19:13:06.487Z,75.21
2018-10-05T19:15:37.144Z,75.18
2018-10-05T19:18:07.648Z,74.73
2018-10-05T19:20:38.320Z,75.02
2018-10-05T19:23:08.916Z,74.50
2018-10-05T19:25:39.197Z,74.70
2018-10-05T19:28:09.543Z,75.38
2018-10-05T19:30:40.041Z,75.37
2018-10-05T19:33:10.628Z,74.80
2018-10-05T19:35:41.323Z,75.56
2018-10-05T19:38:11.818Z,75.40
2018-10-05T19:40:42.613Z,75.51
2018-10-05T19:43:13.129Z,75.19
2018-10-05T19:45:43.900Z,75.67
2018-10-05T19:48:14.598Z,75.71
2018-10-05T19:50:45.011Z,75.61
2018-10-05T19:53:15.534Z,75.67
2018-10-05T19:55:46.083Z,75.66
2018-10-05T19:58:16.672Z,74.77
2018-10-05T20:00:47.134Z,74.73
2018-10-05T20:03:17.635Z,74.44
2018-10-05T20:05:48.213Z,74.46
2018-10-05T20:08:18.732Z,74.24
2018-10-05T20:10:49.943Z,74.27
2018-10-05T20:13:20.499Z,74.54
2018-10-05T20:15:51.083Z,74.82
2018-10-05T20:18:21.405Z,74.53
2018-10-05T20:20:51.907Z,75.25
2018-10-05T20:23:22.450Z,76.03
2018-10-05T20:25:53.111Z,76.04
2018-10-05T20:28:23.676Z,76.46
2018-10-05T20:30:54.328Z,76.60
2018-10-05T20:33:26.917Z,77.08
2018-10-05T20:35:57.755Z,77.16
2018-10-05T20:38:28.168Z,77.26
2018-10-05T20:40:58.644Z,77.13
2018-10-05T20:43:29.234Z,77.29
2018-10-05T20:45:59.913Z,77.44
2018-10-05T20:48:30.403Z,77.94
2018-10-05T20:51:00.799Z,76.58
2018-10-05T20:53:31.768Z,77.27
2018-10-05T20:56:02.191Z,76.75
2018-10-05T20:58:32.538Z,77.74
2018-10-05T21:01:02.918Z,77.50
2018-10-05T21:03:33.403Z,78.47
2018-10-05T21:06:03.883Z,78.17
2018-10-05T21:08:34.268Z,78.20
2018-10-05T21:11:04.666Z,78.71
2018-10-05T21:13:35.110Z,78.38
2018-10-05T21:16:05.575Z,77.65
2018-10-05T21:18:36.089Z,77.62
2018-10-05T21:21:06.989Z,77.34
2018-10-05T21:23:37.464Z,76.84
2018-10-05T21:26:08.070Z,76.89
2018-10-05T21:28:38.530Z,77.34
2018-10-05T21:31:09.218Z,77.12
2018-10-05T21:33:39.692Z,77.16
2018-10-05T21:36:09.979Z,77.37
2018-10-05T21:38:41.591Z,77.38
2018-10-05T21:41:12.046Z,77.24
2018-10-05T21:43:42.525Z,76.85
2018-10-05T21:46:13.012Z,76.49
2018-10-05T21:48:43.572Z,76.31
2018-10-05T21:51:13.906Z,76.63
2018-10-05T21:53:44.267Z,77.02
2018-10-05T21:56:14.925Z,77.08
2018-10-05T21:58:45.331Z,77.77
2018-10-05T22:01:15.701Z,77.00
2018-10-05T22:03:46.948Z,76.92
2018-10-05T22:06:19.198Z,76.65
2018-10-05T22:08:49.707Z,76.47
2018-10-05T22:11:20.063Z,76.89
2018-10-05T22:13:50.363Z,76.32
2018-10-05T22:16:20.941Z,76.53
2018-10-05T22:18:51.447Z,75.83
2018-10-05T22:21:21.995Z,76.46
2018-10-05T22:23:52.314Z,76.23
2018-10-05T22:26:22.555Z,76.60
2018-10-05T22:28:52.953Z,77.90
2018-10-05T22:31:23.312Z,78.30
2018-10-05T22:33:53.693Z,78.32
2018-10-05T22:36:24.263Z,78.24
2018-10-05T22:38:54.769Z,78.22
2018-10-05T22:41:25.276Z,77.78
2018-10-05T22:43:55.517Z,78.38
2018-10-05T22:46:25.980Z,78.57
2018-10-05T22:48:56.369Z,78.61
2018-10-05T22:51:27.036Z,78.41
2018-10-05T22:53:57.359Z,78.85
2018-10-05T22:56:27.856Z,78.88
2018-10-05T22:58:58.204Z,79.36
2018-10-05T23:01:28.669Z,79.79
2018-10-05T23:03:59.061Z,79.50
2018-10-05T23:06:29.565Z,79.81
2018-10-05T23:08:59.900Z,79.81
2018-10-05T23:11:30.305Z,79.64
2018-10-05T23:14:00.681Z,80.51
2018-10-05T23:16:31.283Z,80.51
2018-10-05T23:19:01.761Z,80.23
2018-10-05T23:21:32.380Z,80.13
2018-10-05T23:24:02.872Z,80.68
2018-10-05T23:26:33.412Z,80.89
2018-10-05T23:29:03.772Z,80.75
2018-10-05T23:31:34.236Z,81.18
2018-10-05T23:34:04.753Z,81.33
2018-10-05T23:36:35.408Z,81.31
2018-10-05T23:39:08.216Z,81.82
2018-10-05T23:41:38.644Z,81.68
2018-10-05T23:44:09.532Z,81.02
2018-10-05T23:46:39.893Z,80.96
2018-10-05T23:49:10.382Z,80.77
2018-10-05T23:51:40.890Z,80.07
2018-10-05T23:54:11.159Z,80.66
2018-10-05T23:56:41.632Z,81.08
2018-10-05T23:59:11.909Z,80.71
